sensor_id;sensor_type;location;lat;lon;timestamp;temperature;humidity
7694;DHT22;3889;48.162;11.510;2022-10-28T00:01:10;10.70;99.90
7694;DHT22;3889;48.162;11.510;2022-10-28T00:03:41;10.70;99.90
7694;DHT22;3889;48.162;11.510;2022-10-28T00:06:12;10.80;99.90
7694;DHT22;3889;48.162;11.510;2022-10-28T00:08:40;10.70;99.90
7694;DHT22;3889;48.162;11.510;2022-10-28T00:11:10;10.70;99.90
7694;DHT22;3889;48.162;11.510;2022-10-28T00:13:39;10.70;99.90
7694;DHT22;3889;48.162;11.510;2022-10-28T00:16:09;10.70;99.90
7694;DHT22;3889;48.162;11.510;2022-10-28T00:18:37;10.60;99.90
7694;DHT22;3889;48.162;11.510;2022-10-28T00:21:09;10.60;99.90
7694;DHT22;3889;48.162;11.510;2022-10-28T00:23:37;10.50;99.90
7694;DHT22;3889;48.162;11.510;2022-10-28T00:26:06;10.50;99.90
7694;DHT22;3889;48.162;11.510;2022-10-28T00:28:35;10.50;99.90
7694;DHT22;3889;48.162;11.510;2022-10-28T00:31:07;10.50;99.90
7694;DHT22;3889;48.162;11.510;2022-10-28T00:33:35;10.60;99.90
7694;DHT22;3889;48.162;11.510;2022-10-28T00:36:09;10.50;99.90
7694;DHT22;3889;48.162;11.510;2022-10-28T00:38:38;10.60;99.90
7694;DHT22;3889;48.162;11.510;2022-10-28T00:41:07;10.60;99.90
7694;DHT22;3889;48.162;11.510;2022-10-28T00:43:37;10.60;99.90
7694;DHT22;3889;48.162;11.510;2022-10-28T00:46:12;10.50;99.90
7694;DHT22;3889;48.162;11.510;2022-10-28T00:48:42;10.60;99.90
7694;DHT22;3889;48.162;11.510;2022-10-28T00:51:14;10.50;99.90
7694;DHT22;3889;48.162;11.510;2022-10-28T00:53:45;10.50;99.90
7694;DHT22;3889;48.162;11.510;2022-10-28T00:56:15;10.50;99.90
7694;DHT22;3889;48.162;11.510;2022-10-28T00:58:44;10.40;99.90
7694;DHT22;3889;48.162;11.510;2022-10-28T01:01:12;10.40;99.90
7694;DHT22;3889;48.162;11.510;2022-10-28T01:03:40;10.50;99.90
7694;DHT22;3889;48.162;11.510;2022-10-28T01:06:09;10.50;99.90
7694;DHT22;3889;48.162;11.510;2022-10-28T01:08:38;10.50;99.90
7694;DHT22;3889;48.162;11.510;2022-10-28T01:14:35;10.50;99.90
7694;DHT22;3889;48.162;11.510;2022-10-28T01:17:17;10.40;99.90
7694;DHT22;3889;48.162;11.510;2022-10-28T01:23:12;10.40;99.90
7694;DHT22;3889;48.162;11.510;2022-10-28T01:26:32;10.30;99.90
7694;DHT22;3889;48.162;11.510;2022-10-28T01:32:20;10.30;99.90
7694;DHT22;3889;48.162;11.510;2022-10-28T01:34:59;10.40;99.90
7694;DHT22;3889;48.162;11.510;2022-10-28T01:37:35;10.40;99.90
7694;DHT22;3889;48.162;11.510;2022-10-28T01:40:09;10.40;99.90
7694;DHT22;3889;48.162;11.510;2022-10-28T01:42:41;10.30;99.90
7694;DHT22;3889;48.162;11.510;2022-10-28T01:45:16;10.30;99.90
7694;DHT22;3889;48.162;11.510;2022-10-28T01:47:50;10.30;99.90
7694;DHT22;3889;48.162;11.510;2022-10-28T01:50:23;10.30;99.90
7694;DHT22;3889;48.162;11.510;2022-10-28T01:52:54;10.30;99.90
7694;DHT22;3889;48.162;11.510;2022-10-28T01:55:25;10.30;99.90
7694;DHT22;3889;48.162;11.510;2022-10-28T01:57:56;10.30;99.90
7694;DHT22;3889;48.162;11.510;2022-10-28T02:00:26;10.30;99.90
7694;DHT22;3889;48.162;11.510;2022-10-28T02:02:55;10.30;99.90
7694;DHT22;3889;48.162;11.510;2022-10-28T02:05:38;10.30;99.90
7694;DHT22;3889;48.162;11.510;2022-10-28T02:08:26;10.20;99.90
7694;DHT22;3889;48.162;11.510;2022-10-28T02:11:11;10.20;99.90
7694;DHT22;3889;48.162;11.510;2022-10-28T02:13:48;10.20;99.90
7694;DHT22;3889;48.162;11.510;2022-10-28T02:16:23;10.20;99.90
7694;DHT22;3889;48.162;11.510;2022-10-28T02:18:59;10.20;99.90
7694;DHT22;3889;48.162;11.510;2022-10-28T02:21:35;10.10;99.90
7694;DHT22;3889;48.162;11.510;2022-10-28T02:24:10;10.10;99.90
7694;DHT22;3889;48.162;11.510;2022-10-28T02:26:44;10.10;99.90
7694;DHT22;3889;48.162;11.510;2022-10-28T02:29:18;10.00;99.90
7694;DHT22;3889;48.162;11.510;2022-10-28T02:31:49;9.90;99.90
7694;DHT22;3889;48.162;11.510;2022-10-28T02:34:25;9.90;99.90
7694;DHT22;3889;48.162;11.510;2022-10-28T02:36:54;9.80;99.90
7694;DHT22;3889;48.162;11.510;2022-10-28T02:39:27;9.80;99.90
7694;DHT22;3889;48.162;11.510;2022-10-28T02:42:00;9.80;99.90
7694;DHT22;3889;48.162;11.510;2022-10-28T02:44:34;9.80;99.90
7694;DHT22;3889;48.162;11.510;2022-10-28T02:47:07;9.80;99.90
7694;DHT22;3889;48.162;11.510;2022-10-28T02:49:41;9.80;99.90
7694;DHT22;3889;48.162;11.510;2022-10-28T02:52:10;9.70;99.90
7694;DHT22;3889;48.162;11.510;2022-10-28T02:54:40;9.80;99.90
7694;DHT22;3889;48.162;11.510;2022-10-28T02:57:13;9.80;99.90
7694;DHT22;3889;48.162;11.510;2022-10-28T02:59:42;9.80;99.90
7694;DHT22;3889;48.162;11.510;2022-10-28T03:02:10;9.80;99.90
7694;DHT22;3889;48.162;11.510;2022-10-28T03:04:39;9.70;99.90
7694;DHT22;3889;48.162;11.510;2022-10-28T03:07:07;9.80;99.90
7694;DHT22;3889;48.162;11.510;2022-10-28T03:09:35;9.80;99.90
7694;DHT22;3889;48.162;11.510;2022-10-28T03:12:03;9.80;99.90
7694;DHT22;3889;48.162;11.510;2022-10-28T03:14:31;9.70;99.90
7694;DHT22;3889;48.162;11.510;2022-10-28T03:16:58;9.70;99.90
7694;DHT22;3889;48.162;11.510;2022-10-28T03:19:26;9.70;99.90
7694;DHT22;3889;48.162;11.510;2022-10-28T03:21:56;9.80;99.90
7694;DHT22;3889;48.162;11.510;2022-10-28T03:24:23;9.80;99.90
7694;DHT22;3889;48.162;11.510;2022-10-28T03:26:51;9.80;99.90
7694;DHT22;3889;48.162;11.510;2022-10-28T03:29:19;9.80;99.90
7694;DHT22;3889;48.162;11.510;2022-10-28T03:31:47;9.70;99.90
7694;DHT22;3889;48.162;11.510;2022-10-28T03:34:14;9.60;99.90
7694;DHT22;3889;48.162;11.510;2022-10-28T03:36:42;9.70;99.90
7694;DHT22;3889;48.162;11.510;2022-10-28T03:39:11;9.70;99.90
7694;DHT22;3889;48.162;11.510;2022-10-28T03:41:39;9.60;99.90
7694;DHT22;3889;48.162;11.510;2022-10-28T03:44:07;9.60;99.90
7694;DHT22;3889;48.162;11.510;2022-10-28T03:46:35;9.50;99.90
7694;DHT22;3889;48.162;11.510;2022-10-28T03:49:03;9.60;99.90
7694;DHT22;3889;48.162;11.510;2022-10-28T03:51:31;9.60;99.90
7694;DHT22;3889;48.162;11.510;2022-10-28T03:53:58;9.50;99.90
7694;DHT22;3889;48.162;11.510;2022-10-28T03:56:28;9.50;99.90
7694;DHT22;3889;48.162;11.510;2022-10-28T03:58:55;9.50;99.90
7694;DHT22;3889;48.162;11.510;2022-10-28T04:01:23;9.50;99.90
7694;DHT22;3889;48.162;11.510;2022-10-28T04:03:51;9.50;99.90
7694;DHT22;3889;48.162;11.510;2022-10-28T04:06:19;9.50;99.90
7694;DHT22;3889;48.162;11.510;2022-10-28T04:08:47;9.50;99.90
7694;DHT22;3889;48.162;11.510;2022-10-28T04:11:15;9.40;99.90
7694;DHT22;3889;48.162;11.510;2022-10-28T04:13:44;9.40;99.90
7694;DHT22;3889;48.162;11.510;2022-10-28T04:16:12;9.30;99.90
7694;DHT22;3889;48.162;11.510;2022-10-28T04:18:39;9.30;99.90
7694;DHT22;3889;48.162;11.510;2022-10-28T04:21:07;9.40;99.90
7694;DHT22;3889;48.162;11.510;2022-10-28T04:23:35;9.40;99.90
7694;DHT22;3889;48.162;11.510;2022-10-28T04:26:03;9.40;99.90
7694;DHT22;3889;48.162;11.510;2022-10-28T04:28:31;9.40;99.90
7694;DHT22;3889;48.162;11.510;2022-10-28T04:31:00;9.40;99.90
7694;DHT22;3889;48.162;11.510;2022-10-28T04:33:28;9.40;99.90
7694;DHT22;3889;48.162;11.510;2022-10-28T04:35:56;9.30;99.90
7694;DHT22;3889;48.162;11.510;2022-10-28T04:38:24;9.20;99.90
7694;DHT22;3889;48.162;11.510;2022-10-28T04:40:52;9.20;99.90
7694;DHT22;3889;48.162;11.510;2022-10-28T04:43:19;9.20;99.90
7694;DHT22;3889;48.162;11.510;2022-10-28T04:45:47;9.20;99.90
7694;DHT22;3889;48.162;11.510;2022-10-28T04:48:16;9.20;99.90
7694;DHT22;3889;48.162;11.510;2022-10-28T04:50:44;9.20;99.90
7694;DHT22;3889;48.162;11.510;2022-10-28T04:53:12;9.20;99.90
7694;DHT22;3889;48.162;11.510;2022-10-28T04:55:40;9.20;99.90
7694;DHT22;3889;48.162;11.510;2022-10-28T04:58:08;9.20;99.90
7694;DHT22;3889;48.162;11.510;2022-10-28T05:00:36;9.10;99.90
7694;DHT22;3889;48.162;11.510;2022-10-28T05:03:04;9.20;99.90
7694;DHT22;3889;48.162;11.510;2022-10-28T05:05:33;9.10;99.90
7694;DHT22;3889;48.162;11.510;2022-10-28T05:08:01;9.10;99.90
7694;DHT22;3889;48.162;11.510;2022-10-28T05:10:29;9.10;99.90
7694;DHT22;3889;48.162;11.510;2022-10-28T05:12:57;9.20;99.90
7694;DHT22;3889;48.162;11.510;2022-10-28T05:15:24;9.20;99.90
7694;DHT22;3889;48.162;11.510;2022-10-28T05:17:52;9.10;99.90
7694;DHT22;3889;48.162;11.510;2022-10-28T05:20:21;9.30;99.90
7694;DHT22;3889;48.162;11.510;2022-10-28T05:22:52;9.20;99.90
7694;DHT22;3889;48.162;11.510;2022-10-28T05:25:22;9.20;99.90
7694;DHT22;3889;48.162;11.510;2022-10-28T05:27:50;9.20;99.90
7694;DHT22;3889;48.162;11.510;2022-10-28T05:30:18;9.10;99.90
7694;DHT22;3889;48.162;11.510;2022-10-28T05:32:45;9.10;99.90
7694;DHT22;3889;48.162;11.510;2022-10-28T05:35:18;9.00;99.90
7694;DHT22;3889;48.162;11.510;2022-10-28T05:37:46;9.10;99.90
7694;DHT22;3889;48.162;11.510;2022-10-28T05:40:15;9.00;99.90
7694;DHT22;3889;48.162;11.510;2022-10-28T05:42:43;9.00;99.90
7694;DHT22;3889;48.162;11.510;2022-10-28T05:45:11;9.00;99.90
7694;DHT22;3889;48.162;11.510;2022-10-28T05:47:41;9.00;99.90
7694;DHT22;3889;48.162;11.510;2022-10-28T05:50:10;9.00;99.90
7694;DHT22;3889;48.162;11.510;2022-10-28T05:52:38;9.10;99.90
7694;DHT22;3889;48.162;11.510;2022-10-28T05:55:06;9.10;99.90
7694;DHT22;3889;48.162;11.510;2022-10-28T05:57:36;9.20;99.90
7694;DHT22;3889;48.162;11.510;2022-10-28T06:00:06;9.20;99.90
7694;DHT22;3889;48.162;11.510;2022-10-28T06:02:34;9.30;99.90
7694;DHT22;3889;48.162;11.510;2022-10-28T06:05:01;9.30;99.90
7694;DHT22;3889;48.162;11.510;2022-10-28T06:07:29;9.30;99.90
7694;DHT22;3889;48.162;11.510;2022-10-28T06:09:57;9.40;99.90
7694;DHT22;3889;48.162;11.510;2022-10-28T06:12:25;9.50;99.90
7694;DHT22;3889;48.162;11.510;2022-10-28T06:14:54;9.40;99.90
7694;DHT22;3889;48.162;11.510;2022-10-28T06:17:22;9.50;99.90
7694;DHT22;3889;48.162;11.510;2022-10-28T06:19:50;9.40;99.90
7694;DHT22;3889;48.162;11.510;2022-10-28T06:22:18;9.50;99.90
7694;DHT22;3889;48.162;11.510;2022-10-28T06:24:46;9.40;99.90
7694;DHT22;3889;48.162;11.510;2022-10-28T06:27:14;9.40;99.90
7694;DHT22;3889;48.162;11.510;2022-10-28T06:29:42;9.40;99.90
7694;DHT22;3889;48.162;11.510;2022-10-28T06:32:11;9.50;99.90
7694;DHT22;3889;48.162;11.510;2022-10-28T06:34:38;9.50;99.90
7694;DHT22;3889;48.162;11.510;2022-10-28T06:37:06;9.60;99.90
7694;DHT22;3889;48.162;11.510;2022-10-28T06:39:36;9.60;99.90
7694;DHT22;3889;48.162;11.510;2022-10-28T06:42:05;9.70;99.90
7694;DHT22;3889;48.162;11.510;2022-10-28T06:44:33;9.70;99.90
7694;DHT22;3889;48.162;11.510;2022-10-28T06:47:01;9.80;99.90
7694;DHT22;3889;48.162;11.510;2022-10-28T06:49:30;9.80;99.90
7694;DHT22;3889;48.162;11.510;2022-10-28T06:51:58;9.80;99.90
7694;DHT22;3889;48.162;11.510;2022-10-28T06:54:26;9.80;99.90
7694;DHT22;3889;48.162;11.510;2022-10-28T06:56:53;9.90;99.90
7694;DHT22;3889;48.162;11.510;2022-10-28T06:59:21;10.00;99.90
7694;DHT22;3889;48.162;11.510;2022-10-28T07:01:49;10.00;99.90
7694;DHT22;3889;48.162;11.510;2022-10-28T07:04:17;10.00;99.90
7694;DHT22;3889;48.162;11.510;2022-10-28T07:06:46;10.10;99.90
7694;DHT22;3889;48.162;11.510;2022-10-28T07:09:17;10.20;99.90
7694;DHT22;3889;48.162;11.510;2022-10-28T07:11:47;10.30;99.90
7694;DHT22;3889;48.162;11.510;2022-10-28T07:14:20;10.30;99.90
7694;DHT22;3889;48.162;11.510;2022-10-28T07:16:48;10.40;99.90
7694;DHT22;3889;48.162;11.510;2022-10-28T07:19:16;10.50;99.90
7694;DHT22;3889;48.162;11.510;2022-10-28T07:21:49;10.60;99.90
7694;DHT22;3889;48.162;11.510;2022-10-28T07:24:17;10.70;99.90
7694;DHT22;3889;48.162;11.510;2022-10-28T07:26:46;10.80;99.90
7694;DHT22;3889;48.162;11.510;2022-10-28T07:29:17;10.90;99.90
7694;DHT22;3889;48.162;11.510;2022-10-28T07:31:45;11.00;99.90
7694;DHT22;3889;48.162;11.510;2022-10-28T07:34:13;11.10;99.90
7694;DHT22;3889;48.162;11.510;2022-10-28T07:36:41;11.30;99.90
7694;DHT22;3889;48.162;11.510;2022-10-28T07:39:10;11.40;99.90
7694;DHT22;3889;48.162;11.510;2022-10-28T07:41:38;11.50;99.90
7694;DHT22;3889;48.162;11.510;2022-10-28T07:44:06;11.60;99.90
7694;DHT22;3889;48.162;11.510;2022-10-28T07:46:34;11.80;99.90
7694;DHT22;3889;48.162;11.510;2022-10-28T07:49:02;12.00;99.90
7694;DHT22;3889;48.162;11.510;2022-10-28T07:51:30;12.20;99.90
7694;DHT22;3889;48.162;11.510;2022-10-28T07:53:58;12.40;99.90
7694;DHT22;3889;48.162;11.510;2022-10-28T07:56:27;12.60;99.90
7694;DHT22;3889;48.162;11.510;2022-10-28T07:58:54;12.80;99.90
7694;DHT22;3889;48.162;11.510;2022-10-28T08:01:22;13.00;99.90
7694;DHT22;3889;48.162;11.510;2022-10-28T08:03:50;13.30;99.90
7694;DHT22;3889;48.162;11.510;2022-10-28T08:06:19;13.50;99.90
7694;DHT22;3889;48.162;11.510;2022-10-28T08:08:52;13.80;99.90
7694;DHT22;3889;48.162;11.510;2022-10-28T08:11:21;14.00;99.90
7694;DHT22;3889;48.162;11.510;2022-10-28T08:13:52;14.30;99.90
7694;DHT22;3889;48.162;11.510;2022-10-28T08:16:21;14.50;99.90
7694;DHT22;3889;48.162;11.510;2022-10-28T08:18:49;14.70;99.90
7694;DHT22;3889;48.162;11.510;2022-10-28T08:21:18;15.00;99.90
7694;DHT22;3889;48.162;11.510;2022-10-28T08:23:46;15.20;99.90
7694;DHT22;3889;48.162;11.510;2022-10-28T08:26:15;15.30;99.90
7694;DHT22;3889;48.162;11.510;2022-10-28T08:28:42;15.50;99.90
7694;DHT22;3889;48.162;11.510;2022-10-28T08:31:12;15.60;99.90
7694;DHT22;3889;48.162;11.510;2022-10-28T08:33:41;15.70;99.90
7694;DHT22;3889;48.162;11.510;2022-10-28T08:36:11;15.80;99.90
7694;DHT22;3889;48.162;11.510;2022-10-28T08:38:39;15.90;99.90
7694;DHT22;3889;48.162;11.510;2022-10-28T08:41:31;15.90;99.90
7694;DHT22;3889;48.162;11.510;2022-10-28T08:44:44;16.00;99.90
7694;DHT22;3889;48.162;11.510;2022-10-28T08:47:26;16.10;99.90
7694;DHT22;3889;48.162;11.510;2022-10-28T08:50:00;16.10;99.90
7694;DHT22;3889;48.162;11.510;2022-10-28T08:52:31;16.20;99.90
7694;DHT22;3889;48.162;11.510;2022-10-28T08:55:04;16.30;99.90
7694;DHT22;3889;48.162;11.510;2022-10-28T08:57:36;16.30;99.90
7694;DHT22;3889;48.162;11.510;2022-10-28T09:00:07;16.40;99.90
7694;DHT22;3889;48.162;11.510;2022-10-28T09:02:54;16.50;99.90
7694;DHT22;3889;48.162;11.510;2022-10-28T09:05:24;16.50;99.90
7694;DHT22;3889;48.162;11.510;2022-10-28T09:07:53;16.60;99.90
7694;DHT22;3889;48.162;11.510;2022-10-28T09:10:41;16.70;99.90
7694;DHT22;3889;48.162;11.510;2022-10-28T09:13:16;16.70;99.90
7694;DHT22;3889;48.162;11.510;2022-10-28T09:15:55;16.70;99.90
7694;DHT22;3889;48.162;11.510;2022-10-28T09:18:35;16.70;99.90
7694;DHT22;3889;48.162;11.510;2022-10-28T09:21:13;16.70;99.90
7694;DHT22;3889;48.162;11.510;2022-10-28T09:23:51;16.70;99.90
7694;DHT22;3889;48.162;11.510;2022-10-28T09:26:32;16.70;99.90
7694;DHT22;3889;48.162;11.510;2022-10-28T09:29:11;16.70;99.90
7694;DHT22;3889;48.162;11.510;2022-10-28T09:31:44;16.80;99.90
7694;DHT22;3889;48.162;11.510;2022-10-28T09:34:23;16.90;99.90
7694;DHT22;3889;48.162;11.510;2022-10-28T09:36:57;17.20;99.90
7694;DHT22;3889;48.162;11.510;2022-10-28T09:39:28;17.40;99.90
7694;DHT22;3889;48.162;11.510;2022-10-28T09:41:59;17.70;99.90
7694;DHT22;3889;48.162;11.510;2022-10-28T09:44:35;17.90;99.90
7694;DHT22;3889;48.162;11.510;2022-10-28T09:47:12;18.20;99.90
7694;DHT22;3889;48.162;11.510;2022-10-28T09:49:43;18.30;99.90
7694;DHT22;3889;48.162;11.510;2022-10-28T09:52:16;18.40;99.90
7694;DHT22;3889;48.162;11.510;2022-10-28T09:54:48;18.50;99.90
7694;DHT22;3889;48.162;11.510;2022-10-28T09:57:17;18.60;99.90
7694;DHT22;3889;48.162;11.510;2022-10-28T09:59:46;18.70;99.90
7694;DHT22;3889;48.162;11.510;2022-10-28T10:02:27;18.80;99.90
7694;DHT22;3889;48.162;11.510;2022-10-28T10:04:59;19.00;99.90
7694;DHT22;3889;48.162;11.510;2022-10-28T10:07:31;19.10;99.90
7694;DHT22;3889;48.162;11.510;2022-10-28T10:10:04;19.20;99.90
7694;DHT22;3889;48.162;11.510;2022-10-28T10:12:33;19.40;99.90
7694;DHT22;3889;48.162;11.510;2022-10-28T10:15:04;19.60;99.90
7694;DHT22;3889;48.162;11.510;2022-10-28T10:17:38;19.80;99.90
7694;DHT22;3889;48.162;11.510;2022-10-28T10:20:10;19.90;99.90
7694;DHT22;3889;48.162;11.510;2022-10-28T10:22:39;19.80;99.90
7694;DHT22;3889;48.162;11.510;2022-10-28T10:25:26;19.80;99.90
7694;DHT22;3889;48.162;11.510;2022-10-28T10:27:57;19.70;99.90
7694;DHT22;3889;48.162;11.510;2022-10-28T10:30:29;19.70;99.90
7694;DHT22;3889;48.162;11.510;2022-10-28T10:32:58;19.70;99.90
7694;DHT22;3889;48.162;11.510;2022-10-28T10:35:28;19.90;99.90
7694;DHT22;3889;48.162;11.510;2022-10-28T10:37:59;19.90;99.90
7694;DHT22;3889;48.162;11.510;2022-10-28T10:40:29;20.10;99.90
7694;DHT22;3889;48.162;11.510;2022-10-28T10:43:21;20.10;99.90
7694;DHT22;3889;48.162;11.510;2022-10-28T10:45:52;20.20;99.90
7694;DHT22;3889;48.162;11.510;2022-10-28T10:48:20;20.10;99.90
7694;DHT22;3889;48.162;11.510;2022-10-28T10:50:49;20.00;99.90
7694;DHT22;3889;48.162;11.510;2022-10-28T10:53:20;20.00;99.90
7694;DHT22;3889;48.162;11.510;2022-10-28T10:55:50;19.90;99.90
7694;DHT22;3889;48.162;11.510;2022-10-28T10:58:20;19.80;99.90
7694;DHT22;3889;48.162;11.510;2022-10-28T11:00:50;19.70;99.90
7694;DHT22;3889;48.162;11.510;2022-10-28T11:03:22;19.60;99.90
7694;DHT22;3889;48.162;11.510;2022-10-28T11:05:54;19.60;99.90
7694;DHT22;3889;48.162;11.510;2022-10-28T11:08:42;19.50;99.90
7694;DHT22;3889;48.162;11.510;2022-10-28T11:11:12;19.50;99.90
7694;DHT22;3889;48.162;11.510;2022-10-28T11:13:41;19.70;99.90
7694;DHT22;3889;48.162;11.510;2022-10-28T11:16:19;19.80;99.90
7694;DHT22;3889;48.162;11.510;2022-10-28T11:18:50;20.00;99.90
7694;DHT22;3889;48.162;11.510;2022-10-28T11:21:41;20.10;99.90
7694;DHT22;3889;48.162;11.510;2022-10-28T11:24:27;20.30;99.90
7694;DHT22;3889;48.162;11.510;2022-10-28T11:27:03;20.50;99.90
7694;DHT22;3889;48.162;11.510;2022-10-28T11:29:35;20.70;99.90
7694;DHT22;3889;48.162;11.510;2022-10-28T11:32:23;20.80;99.90
7694;DHT22;3889;48.162;11.510;2022-10-28T11:35:06;20.90;99.90
7694;DHT22;3889;48.162;11.510;2022-10-28T11:37:52;20.90;99.90
7694;DHT22;3889;48.162;11.510;2022-10-28T11:40:30;20.80;99.90
7694;DHT22;3889;48.162;11.510;2022-10-28T11:43:14;20.90;99.90
7694;DHT22;3889;48.162;11.510;2022-10-28T11:45:49;21.00;99.90
7694;DHT22;3889;48.162;11.510;2022-10-28T11:48:28;21.10;99.90
7694;DHT22;3889;48.162;11.510;2022-10-28T11:51:07;21.00;99.90
7694;DHT22;3889;48.162;11.510;2022-10-28T11:54:12;21.20;99.90
7694;DHT22;3889;48.162;11.510;2022-10-28T11:56:46;21.20;99.90
7694;DHT22;3889;48.162;11.510;2022-10-28T11:59:37;21.20;99.90
7694;DHT22;3889;48.162;11.510;2022-10-28T12:02:18;21.40;99.90
7694;DHT22;3889;48.162;11.510;2022-10-28T12:04:57;21.30;99.90
7694;DHT22;3889;48.162;11.510;2022-10-28T12:10:34;21.50;99.90
7694;DHT22;3889;48.162;11.510;2022-10-28T12:13:13;21.50;99.90
7694;DHT22;3889;48.162;11.510;2022-10-28T12:15:50;21.50;99.90
7694;DHT22;3889;48.162;11.510;2022-10-28T12:18:28;21.60;99.90
7694;DHT22;3889;48.162;11.510;2022-10-28T12:21:03;21.80;99.90
7694;DHT22;3889;48.162;11.510;2022-10-28T12:23:35;22.00;99.90
7694;DHT22;3889;48.162;11.510;2022-10-28T12:26:09;22.30;99.90
7694;DHT22;3889;48.162;11.510;2022-10-28T12:28:42;22.40;99.90
7694;DHT22;3889;48.162;11.510;2022-10-28T12:31:17;22.20;99.90
7694;DHT22;3889;48.162;11.510;2022-10-28T12:33:49;22.20;99.90
7694;DHT22;3889;48.162;11.510;2022-10-28T12:36:26;22.00;99.90
7694;DHT22;3889;48.162;11.510;2022-10-28T12:39:00;22.10;99.90
7694;DHT22;3889;48.162;11.510;2022-10-28T12:41:43;22.20;99.90
7694;DHT22;3889;48.162;11.510;2022-10-28T12:44:14;22.20;99.90
7694;DHT22;3889;48.162;11.510;2022-10-28T12:46:49;22.20;99.90
7694;DHT22;3889;48.162;11.510;2022-10-28T12:49:24;22.00;99.90
7694;DHT22;3889;48.162;11.510;2022-10-28T12:51:57;21.90;99.90
7694;DHT22;3889;48.162;11.510;2022-10-28T12:54:31;22.00;99.90
7694;DHT22;3889;48.162;11.510;2022-10-28T12:57:11;22.00;99.90
7694;DHT22;3889;48.162;11.510;2022-10-28T12:59:42;21.90;99.90
7694;DHT22;3889;48.162;11.510;2022-10-28T13:02:15;21.80;99.90
7694;DHT22;3889;48.162;11.510;2022-10-28T13:04:44;21.70;99.90
7694;DHT22;3889;48.162;11.510;2022-10-28T13:07:44;21.60;99.90
7694;DHT22;3889;48.162;11.510;2022-10-28T13:10:23;21.40;99.90
7694;DHT22;3889;48.162;11.510;2022-10-28T13:13:16;21.50;99.90
7694;DHT22;3889;48.162;11.510;2022-10-28T13:19:04;21.50;99.90
7694;DHT22;3889;48.162;11.510;2022-10-28T13:22:08;21.70;99.90
7694;DHT22;3889;48.162;11.510;2022-10-28T13:24:50;21.80;99.90
7694;DHT22;3889;48.162;11.510;2022-10-28T13:27:21;22.00;99.90
7694;DHT22;3889;48.162;11.510;2022-10-28T13:29:53;22.10;99.90
7694;DHT22;3889;48.162;11.510;2022-10-28T13:32:30;22.20;99.90
7694;DHT22;3889;48.162;11.510;2022-10-28T13:35:11;22.20;99.90
7694;DHT22;3889;48.162;11.510;2022-10-28T13:37:40;22.00;99.90
7694;DHT22;3889;48.162;11.510;2022-10-28T13:40:21;21.90;99.90
7694;DHT22;3889;48.162;11.510;2022-10-28T13:42:49;21.80;99.90
7694;DHT22;3889;48.162;11.510;2022-10-28T13:45:44;21.70;99.90
7694;DHT22;3889;48.162;11.510;2022-10-28T13:48:46;21.50;99.90
7694;DHT22;3889;48.162;11.510;2022-10-28T13:51:31;21.50;99.90
7694;DHT22;3889;48.162;11.510;2022-10-28T13:53:59;21.40;99.90
7694;DHT22;3889;48.162;11.510;2022-10-28T13:56:47;21.30;99.90
7694;DHT22;3889;48.162;11.510;2022-10-28T13:59:23;21.20;99.90
7694;DHT22;3889;48.162;11.510;2022-10-28T14:02:00;21.10;99.90
7694;DHT22;3889;48.162;11.510;2022-10-28T14:04:57;21.00;99.90
7694;DHT22;3889;48.162;11.510;2022-10-28T14:07:27;20.80;99.90
7694;DHT22;3889;48.162;11.510;2022-10-28T14:10:13;20.70;99.90
7694;DHT22;3889;48.162;11.510;2022-10-28T14:12:49;20.60;99.90
7694;DHT22;3889;48.162;11.510;2022-10-28T14:15:23;20.60;99.90
7694;DHT22;3889;48.162;11.510;2022-10-28T14:17:56;20.60;99.90
7694;DHT22;3889;48.162;11.510;2022-10-28T14:20:50;20.50;99.90
7694;DHT22;3889;48.162;11.510;2022-10-28T14:23:49;20.50;99.90
7694;DHT22;3889;48.162;11.510;2022-10-28T14:26:17;20.40;99.90
7694;DHT22;3889;48.162;11.510;2022-10-28T14:28:54;20.40;99.90
7694;DHT22;3889;48.162;11.510;2022-10-28T14:31:42;20.40;99.90
7694;DHT22;3889;48.162;11.510;2022-10-28T14:34:38;20.60;99.90
7694;DHT22;3889;48.162;11.510;2022-10-28T14:37:46;20.80;99.90
7694;DHT22;3889;48.162;11.510;2022-10-28T14:40:30;20.80;99.90
7694;DHT22;3889;48.162;11.510;2022-10-28T14:43:15;21.00;99.90
7694;DHT22;3889;48.162;11.510;2022-10-28T14:46:00;21.10;99.90
7694;DHT22;3889;48.162;11.510;2022-10-28T14:48:44;21.20;99.90
7694;DHT22;3889;48.162;11.510;2022-10-28T14:51:16;21.00;99.90
7694;DHT22;3889;48.162;11.510;2022-10-28T14:53:45;20.90;99.90
7694;DHT22;3889;48.162;11.510;2022-10-28T14:56:23;20.80;99.90
7694;DHT22;3889;48.162;11.510;2022-10-28T14:58:53;20.80;99.90
7694;DHT22;3889;48.162;11.510;2022-10-28T15:01:25;20.70;99.90
7694;DHT22;3889;48.162;11.510;2022-10-28T15:03:57;20.50;99.90
7694;DHT22;3889;48.162;11.510;2022-10-28T15:06:32;20.60;99.90
7694;DHT22;3889;48.162;11.510;2022-10-28T15:09:07;20.30;99.90
7694;DHT22;3889;48.162;11.510;2022-10-28T15:11:41;20.10;99.90
7694;DHT22;3889;48.162;11.510;2022-10-28T15:14:14;19.90;99.90
7694;DHT22;3889;48.162;11.510;2022-10-28T15:16:49;19.70;99.90
7694;DHT22;3889;48.162;11.510;2022-10-28T15:19:19;19.60;99.90
7694;DHT22;3889;48.162;11.510;2022-10-28T15:22:06;19.40;99.90
7694;DHT22;3889;48.162;11.510;2022-10-28T15:24:37;19.20;99.90
7694;DHT22;3889;48.162;11.510;2022-10-28T15:27:12;19.20;99.90
7694;DHT22;3889;48.162;11.510;2022-10-28T15:29:41;19.00;99.90
7694;DHT22;3889;48.162;11.510;2022-10-28T15:32:12;18.90;99.90
7694;DHT22;3889;48.162;11.510;2022-10-28T15:34:42;18.80;99.90
7694;DHT22;3889;48.162;11.510;2022-10-28T15:37:14;18.70;99.90
7694;DHT22;3889;48.162;11.510;2022-10-28T15:39:44;18.50;99.90
7694;DHT22;3889;48.162;11.510;2022-10-28T15:42:36;18.40;99.90
7694;DHT22;3889;48.162;11.510;2022-10-28T15:45:10;18.30;99.90
7694;DHT22;3889;48.162;11.510;2022-10-28T15:47:43;18.10;99.90
7694;DHT22;3889;48.162;11.510;2022-10-28T15:50:28;18.00;99.90
7694;DHT22;3889;48.162;11.510;2022-10-28T15:53:32;17.90;99.90
7694;DHT22;3889;48.162;11.510;2022-10-28T15:56:07;17.70;99.90
7694;DHT22;3889;48.162;11.510;2022-10-28T15:58:38;17.70;99.90
7694;DHT22;3889;48.162;11.510;2022-10-28T16:01:08;17.50;99.90
7694;DHT22;3889;48.162;11.510;2022-10-28T16:03:42;17.40;99.90
7694;DHT22;3889;48.162;11.510;2022-10-28T16:06:23;17.30;99.90
7694;DHT22;3889;48.162;11.510;2022-10-28T16:09:05;17.10;99.90
7694;DHT22;3889;48.162;11.510;2022-10-28T16:11:34;17.10;99.90
7694;DHT22;3889;48.162;11.510;2022-10-28T16:14:26;17.00;99.90
7694;DHT22;3889;48.162;11.510;2022-10-28T16:17:03;16.90;99.90
7694;DHT22;3889;48.162;11.510;2022-10-28T16:19:38;16.80;99.90
7694;DHT22;3889;48.162;11.510;2022-10-28T16:22:10;16.70;99.90
7694;DHT22;3889;48.162;11.510;2022-10-28T16:24:40;16.60;99.90
7694;DHT22;3889;48.162;11.510;2022-10-28T16:27:14;16.60;99.90
7694;DHT22;3889;48.162;11.510;2022-10-28T16:29:43;16.60;99.90
7694;DHT22;3889;48.162;11.510;2022-10-28T16:32:12;16.50;99.90
7694;DHT22;3889;48.162;11.510;2022-10-28T16:34:41;16.40;99.90
7694;DHT22;3889;48.162;11.510;2022-10-28T16:37:20;16.40;99.90
7694;DHT22;3889;48.162;11.510;2022-10-28T16:39:50;16.40;99.90
7694;DHT22;3889;48.162;11.510;2022-10-28T16:42:19;16.30;99.90
7694;DHT22;3889;48.162;11.510;2022-10-28T16:44:47;16.30;99.90